createdAt,value
2018-03-29T00:02:21.456Z,96537.94
2018-03-29T00:04:49.706Z,96538.89
2018-03-29T00:07:18.041Z,96548.44
2018-03-29T00:09:46.320Z,96555.27
2018-03-29T00:12:14.571Z,96559.80
2018-03-29T00:14:42.858Z,96557.49
2018-03-29T00:17:11.109Z,96562.31
2018-03-29T00:19:39.380Z,96572.66
2018-03-29T00:22:07.658Z,96580.56
2018-03-29T00:24:35.911Z,96576.31
2018-03-29T00:27:04.955Z,96586.05
2018-03-29T00:29:33.212Z,96595.88
2018-03-29T00:32:01.468Z,96594.72
2018-03-29T00:34:29.748Z,96602.04
2018-03-29T00:36:58.004Z,96611.80
2018-03-29T00:39:27.025Z,96618.55
2018-03-29T00:41:55.296Z,96622.77
2018-03-29T00:44:23.552Z,96608.73
2018-03-29T00:46:52.574Z,96624.83
2018-03-29T00:49:20.851Z,96623.11
2018-03-29T00:51:49.100Z,96638.78
2018-03-29T00:54:17.360Z,96642.16
2018-03-29T00:56:46.400Z,96639.16
2018-03-29T00:59:14.652Z,96648.41
2018-03-29T01:01:42.943Z,96644.59
2018-03-29T01:04:11.218Z,96655.20
2018-03-29T01:06:39.467Z,96667.53
2018-03-29T01:09:08.488Z,96659.89
2018-03-29T01:11:36.763Z,96664.52
2018-03-29T01:14:05.008Z,96666.23
2018-03-29T01:16:34.128Z,96663.67
2018-03-29T01:19:02.425Z,96665.39
2018-03-29T01:21:30.673Z,96668.34
2018-03-29T01:23:58.956Z,96669.56
2018-03-29T01:26:27.214Z,96676.25
2018-03-29T01:28:56.264Z,96680.98
2018-03-29T01:31:24.516Z,96685.17
2018-03-29T01:33:52.793Z,96682.67
2018-03-29T01:36:21.069Z,96681.41
2018-03-29T01:38:49.325Z,96685.62
2018-03-29T01:41:17.581Z,96684.72
2018-03-29T01:43:46.620Z,96680.05
2018-03-29T01:46:14.873Z,96694.88
2018-03-29T01:48:43.151Z,96696.20
2018-03-29T01:51:11.412Z,96701.16
2018-03-29T01:53:40.439Z,96698.21
2018-03-29T01:56:08.692Z,96704.03
2018-03-29T01:58:36.972Z,96705.19
2018-03-29T02:01:05.222Z,96710.25
2018-03-29T02:03:34.253Z,96717.08
2018-03-29T02:06:02.527Z,96717.22
2018-03-29T02:08:30.780Z,96714.30
2018-03-29T02:10:59.793Z,96713.41
2018-03-29T02:13:28.080Z,96718.88
2018-03-29T02:15:56.329Z,96720.05
2018-03-29T02:18:25.350Z,96723.02
2018-03-29T02:20:53.620Z,96724.31
2018-03-29T02:23:21.887Z,96725.88
2018-03-29T02:25:50.374Z,96725.48
2018-03-29T02:28:18.648Z,96727.66
2018-03-29T02:30:46.905Z,96731.44
2018-03-29T02:33:15.956Z,96728.55
2018-03-29T02:35:44.213Z,96738.77
2018-03-29T02:38:12.467Z,96738.79
2018-03-29T02:40:40.728Z,96744.31
2018-03-29T02:43:09.000Z,96751.52
2018-03-29T02:45:38.037Z,96752.42
2018-03-29T02:48:06.295Z,96758.31
2018-03-29T02:50:34.580Z,96763.81
2018-03-29T02:53:02.845Z,96761.69
2018-03-29T02:55:31.105Z,96756.64
2018-03-29T02:57:59.365Z,96763.81
2018-03-29T03:00:28.403Z,96767.19
2018-03-29T03:02:56.661Z,96765.48
2018-03-29T03:05:24.947Z,96763.41
2018-03-29T03:07:53.225Z,96767.61
2018-03-29T03:10:21.472Z,96766.37
2018-03-29T03:12:50.501Z,96772.28
2018-03-29T03:15:18.790Z,96776.91
2018-03-29T03:17:47.041Z,96777.75
2018-03-29T03:20:15.295Z,96778.16
2018-03-29T03:22:43.572Z,96789.56
2018-03-29T03:25:12.671Z,96800.13
2018-03-29T03:27:40.928Z,96795.89
2018-03-29T03:30:10.003Z,96791.69
2018-03-29T03:32:38.256Z,96796.76
2018-03-29T03:35:06.518Z,96802.24
2018-03-29T03:37:34.795Z,96800.14
2018-03-29T03:40:03.045Z,96799.73
2018-03-29T03:42:31.304Z,96806.48
2018-03-29T03:44:59.588Z,96803.53
2018-03-29T03:47:28.625Z,96808.17
2018-03-29T03:49:56.900Z,96814.09
2018-03-29T03:52:25.157Z,96815.76
2018-03-29T03:54:53.451Z,96819.58
2018-03-29T03:57:21.749Z,96825.48
2018-03-29T03:59:50.052Z,96820.41
2018-03-29T04:02:19.440Z,96833.10
2018-03-29T04:04:47.701Z,96839.00
2018-03-29T04:07:15.979Z,96836.89
2018-03-29T04:09:44.244Z,96847.02
2018-03-29T04:12:12.517Z,96841.96
2018-03-29T04:14:40.816Z,96850.84
2018-03-29T04:17:09.085Z,96849.14
2018-03-29T04:19:37.348Z,96858.86
2018-03-29T04:22:05.616Z,96849.16
2018-03-29T04:24:33.899Z,96856.75
2018-03-29T04:27:02.150Z,96847.47
2018-03-29T04:29:30.413Z,96857.61
2018-03-29T04:31:58.692Z,96858.45
2018-03-29T04:34:26.948Z,96861.81
2018-03-29T04:36:55.966Z,96864.77
2018-03-29T04:39:24.246Z,96863.09
2018-03-29T04:41:52.524Z,96866.89
2018-03-29T04:44:20.802Z,96870.70
2018-03-29T04:46:49.053Z,96876.62
2018-03-29T04:49:18.086Z,96871.13
2018-03-29T04:51:46.361Z,96865.62
2018-03-29T04:54:14.619Z,96874.06
2018-03-29T04:56:42.869Z,96870.71
2018-03-29T04:59:11.906Z,96866.05
2018-03-29T05:01:40.167Z,96879.56
2018-03-29T05:04:08.436Z,96884.22
2018-03-29T05:06:36.700Z,96879.95
2018-03-29T05:09:05.717Z,96881.26
2018-03-29T05:11:33.982Z,96888.02
2018-03-29T05:14:02.241Z,96886.73
2018-03-29T05:16:31.260Z,96893.09
2018-03-29T05:18:59.537Z,96890.55
2018-03-29T05:21:27.785Z,96898.58
2018-03-29T05:23:56.808Z,96898.98
2018-03-29T05:26:25.083Z,96901.13
2018-03-29T05:28:53.351Z,96902.75
2018-03-29T05:31:21.605Z,96914.55
2018-03-29T05:33:50.644Z,96920.48
2018-03-29T05:36:18.901Z,96925.52
2018-03-29T05:38:47.173Z,96928.53
2018-03-29T05:41:15.447Z,96926.76
2018-03-29T05:43:43.706Z,96925.53
2018-03-29T05:46:12.743Z,96931.52
2018-03-29T05:48:41.057Z,96924.35
2018-03-29T05:51:09.368Z,96928.19
2018-03-29T05:53:37.649Z,96920.98
2018-03-29T05:56:05.916Z,96919.74
2018-03-29T05:58:34.173Z,96923.54
2018-03-29T06:01:03.220Z,96929.03
2018-03-29T06:03:31.479Z,96932.41
2018-03-29T06:05:59.727Z,96934.95
2018-03-29T06:08:28.773Z,96940.47
2018-03-29T06:10:57.069Z,96940.47
2018-03-29T06:13:25.288Z,96930.70
2018-03-29T06:15:59.122Z,96931.54
2018-03-29T06:18:32.395Z,96931.48
2018-03-29T06:21:00.689Z,96930.65
2018-03-29T06:23:28.952Z,96933.16
2018-03-29T06:25:57.205Z,96931.45
2018-03-29T06:28:25.489Z,96939.89
2018-03-29T06:30:53.757Z,96945.00
2018-03-29T06:33:22.786Z,96947.51
2018-03-29T06:35:51.052Z,96942.86
2018-03-29T06:38:19.317Z,96942.38
2018-03-29T06:40:47.605Z,96939.45
2018-03-29T06:43:15.858Z,96944.49
2018-03-29T06:45:44.117Z,96948.77
2018-03-29T06:48:13.174Z,96955.48
2018-03-29T06:50:41.441Z,96961.92
2018-03-29T06:53:09.697Z,96964.86
2018-03-29T06:55:37.980Z,96964.11
2018-03-29T06:58:06.232Z,96969.61
2018-03-29T07:00:34.488Z,96964.97
2018-03-29T07:03:03.530Z,96959.48
2018-03-29T07:05:31.779Z,96959.05
2018-03-29T07:08:00.057Z,96954.82
2018-03-29T07:10:28.310Z,96954.73
2018-03-29T07:12:57.349Z,96939.34
2018-03-29T07:15:25.622Z,96940.95
2018-03-29T07:17:53.885Z,96926.78
2018-03-29T07:20:22.166Z,96930.12
2018-03-29T07:22:50.458Z,96936.45
2018-03-29T07:25:18.728Z,96928.06
2018-03-29T07:27:47.008Z,96925.81
2018-03-29T07:30:15.269Z,96928.81
2018-03-29T07:32:43.540Z,96931.81
2018-03-29T07:35:11.811Z,96935.31
2018-03-29T07:37:40.089Z,96948.20
2018-03-29T07:40:08.344Z,96944.44
2018-03-29T07:42:37.378Z,96949.92
2018-03-29T07:45:06.409Z,96952.47
2018-03-29T07:47:34.669Z,96958.88
2018-03-29T07:50:02.960Z,96962.20
2018-03-29T07:52:31.240Z,96957.55
2018-03-29T07:54:59.513Z,96961.39
2018-03-29T07:57:28.228Z,96958.50
2018-03-29T07:59:57.282Z,96956.69
2018-03-29T08:02:25.608Z,96959.73
2018-03-29T08:04:54.649Z,96958.88
2018-03-29T08:07:22.929Z,96949.63
2018-03-29T08:09:51.192Z,96953.80
2018-03-29T08:12:19.464Z,96961.80
2018-03-29T08:14:47.745Z,96966.45
2018-03-29T08:17:16.003Z,96962.58
2018-03-29T08:19:44.291Z,96965.55
2018-03-29T08:22:12.561Z,96970.20
2018-03-29T08:24:40.847Z,96970.59
2018-03-29T08:27:09.128Z,96971.84
2018-03-29T08:29:37.405Z,96977.74
2018-03-29T08:32:05.660Z,96977.83
2018-03-29T08:34:33.920Z,96991.44
2018-03-29T08:37:02.192Z,96992.36
2018-03-29T08:39:30.452Z,96993.16
2018-03-29T08:41:59.477Z,96997.34
2018-03-29T08:44:27.758Z,96996.77
2018-03-29T08:46:56.017Z,97000.19
2018-03-29T08:49:24.295Z,96997.67
2018-03-29T08:51:52.556Z,97007.79
2018-03-29T08:54:25.216Z,97000.52
2018-03-29T08:56:53.468Z,97001.30
2018-03-29T08:59:21.756Z,96999.22
2018-03-29T09:01:50.008Z,97005.51
2018-03-29T09:04:18.270Z,97001.78
2018-03-29T09:06:46.649Z,97000.51
2018-03-29T09:09:14.952Z,97002.23
2018-03-29T09:11:43.192Z,97007.88
2018-03-29T09:14:11.462Z,97010.78
2018-03-29T09:16:39.784Z,97012.93
2018-03-29T09:19:08.043Z,97012.91
2018-03-29T09:21:36.325Z,97021.84
2018-03-29T09:24:04.584Z,97020.66
2018-03-29T09:26:32.872Z,97024.45
2018-03-29T09:29:01.140Z,97023.69
2018-03-29T09:31:29.406Z,97027.45
2018-03-29T09:33:57.678Z,97031.69
2018-03-29T09:36:25.935Z,97019.39
2018-03-29T09:38:54.212Z,97023.58
2018-03-29T09:41:22.472Z,97019.71
2018-03-29T09:43:51.512Z,97022.14
2018-03-29T09:46:19.782Z,97024.64
2018-03-29T09:48:48.045Z,97022.36
2018-03-29T09:51:16.316Z,97017.12
2018-03-29T09:53:44.604Z,97015.75
2018-03-29T09:56:12.863Z,97015.25
2018-03-29T09:58:41.157Z,97014.98
2018-03-29T10:01:09.407Z,97010.70
2018-03-29T10:03:40.260Z,97011.81
2018-03-29T10:06:14.049Z,97003.91
2018-03-29T10:08:43.090Z,96999.40
2018-03-29T10:11:11.377Z,97004.84
2018-03-29T10:13:39.649Z,97002.61
2018-03-29T10:16:07.948Z,97011.50
2018-03-29T10:18:36.205Z,97013.39
2018-03-29T10:21:04.482Z,97006.98
2018-03-29T10:23:32.753Z,97000.27
2018-03-29T10:26:01.016Z,97006.53
2018-03-29T10:28:29.268Z,97005.91
2018-03-29T10:30:57.556Z,97009.97
2018-03-29T10:33:25.811Z,97009.25
2018-03-29T10:35:54.855Z,97002.03
2018-03-29T10:38:23.110Z,97001.42
2018-03-29T10:40:51.361Z,97008.80
2018-03-29T10:43:19.616Z,97005.27
2018-03-29T10:45:48.652Z,96998.36
2018-03-29T10:48:16.937Z,97002.95
2018-03-29T10:50:45.193Z,96998.87
2018-03-29T10:53:13.483Z,97004.17
2018-03-29T10:55:41.762Z,97004.78
2018-03-29T10:58:10.013Z,97006.84
2018-03-29T11:00:38.280Z,97011.19
2018-03-29T11:03:07.300Z,97023.23
2018-03-29T11:05:35.611Z,97017.72
2018-03-29T11:08:03.887Z,97034.69
2018-03-29T11:10:32.149Z,97023.86
2018-03-29T11:13:00.435Z,97020.13
2018-03-29T11:15:28.744Z,97022.89
2018-03-29T11:17:57.759Z,97008.78
2018-03-29T11:20:26.024Z,97011.06
2018-03-29T11:22:55.058Z,97012.66
2018-03-29T11:25:23.321Z,97006.37
2018-03-29T11:27:51.601Z,97009.55
2018-03-29T11:30:19.861Z,97008.66
2018-03-29T11:32:48.113Z,97018.22
2018-03-29T11:35:17.144Z,97021.39
2018-03-29T11:37:45.400Z,97017.22
2018-03-29T11:40:13.654Z,97028.45
2018-03-29T11:42:41.939Z,97028.60
2018-03-29T11:45:10.960Z,97027.27
2018-03-29T11:47:39.220Z,97022.20
2018-03-29T11:50:07.497Z,97013.05
2018-03-29T11:52:35.760Z,97019.70
2018-03-29T11:55:04.773Z,97014.80
2018-03-29T11:57:34.520Z,97006.34
2018-03-29T12:00:02.768Z,97001.16
2018-03-29T12:02:31.020Z,97003.84
2018-03-29T12:05:00.077Z,97006.83
2018-03-29T12:07:28.327Z,97002.30
2018-03-29T12:09:56.592Z,97003.64
2018-03-29T12:12:24.869Z,97002.81
2018-03-29T12:14:53.129Z,97000.98
2018-03-29T12:17:21.388Z,97000.10
2018-03-29T12:19:50.493Z,96995.34
2018-03-29T12:22:19.540Z,96999.23
2018-03-29T12:24:47.805Z,97003.36
2018-03-29T12:27:16.060Z,96996.08
2018-03-29T12:29:44.338Z,96992.48
2018-03-29T12:32:12.615Z,96994.38
2018-03-29T12:34:40.886Z,96997.52
2018-03-29T12:37:09.151Z,97002.27
2018-03-29T12:39:37.434Z,96996.98
2018-03-29T12:42:06.429Z,96985.38
2018-03-29T12:44:34.709Z,96990.05
2018-03-29T12:47:02.985Z,96986.51
2018-03-29T12:49:31.260Z,96985.61
2018-03-29T12:51:59.519Z,96986.75
2018-03-29T12:54:45.614Z,96981.51
2018-03-29T12:57:32.373Z,96972.31
2018-03-29T13:00:00.664Z,96976.55
2018-03-29T13:02:28.917Z,96976.20
2018-03-29T13:04:57.193Z,96989.77
2018-03-29T13:07:25.546Z,97009.84
2018-03-29T13:09:53.820Z,97024.20
2018-03-29T13:12:22.063Z,97018.42
2018-03-29T13:14:50.340Z,97051.22
2018-03-29T13:17:19.349Z,97055.36
2018-03-29T13:19:47.603Z,97073.24
2018-03-29T13:22:16.636Z,97080.89
2018-03-29T13:24:44.897Z,97073.62
2018-03-29T13:27:13.187Z,97067.22
2018-03-29T13:29:41.458Z,97032.16
2018-03-29T13:32:09.718Z,97003.89
2018-03-29T13:34:38.764Z,97014.44
2018-03-29T13:37:07.016Z,97001.84
2018-03-29T13:39:35.285Z,96997.73
2018-03-29T13:42:03.585Z,97000.55
2018-03-29T13:44:31.845Z,97001.91
2018-03-29T13:47:00.116Z,96992.77
2018-03-29T13:49:28.388Z,96993.98
2018-03-29T13:51:56.643Z,97005.05
2018-03-29T13:54:25.696Z,97004.75
2018-03-29T13:56:53.947Z,97011.34
2018-03-29T13:59:22.253Z,97013.28
2018-03-29T14:01:50.467Z,97026.56
2018-03-29T14:04:18.741Z,97023.79
2018-03-29T14:06:47.768Z,97046.84
2018-03-29T14:09:16.041Z,97070.67
2018-03-29T14:11:44.292Z,97076.24
2018-03-29T14:14:12.552Z,97096.06
2018-03-29T14:16:41.660Z,97090.64
2018-03-29T14:19:10.673Z,97072.42
2018-03-29T14:21:39.002Z,97048.44
2018-03-29T14:24:08.046Z,97030.38
2018-03-29T14:26:36.288Z,96991.72
2018-03-29T14:29:05.366Z,96991.98
2018-03-29T14:31:33.605Z,96987.92
2018-03-29T14:34:01.876Z,96989.66
2018-03-29T14:36:30.144Z,96985.97
2018-03-29T14:38:58.429Z,96991.63
2018-03-29T14:41:28.384Z,96990.22
2018-03-29T14:43:56.624Z,96991.88
2018-03-29T14:46:24.929Z,96987.96
2018-03-29T14:48:53.192Z,97001.24
2018-03-29T14:51:21.448Z,97006.67
2018-03-29T14:53:49.740Z,97000.01
2018-03-29T14:56:18.033Z,96994.89
2018-03-29T14:58:46.305Z,96991.95
2018-03-29T15:01:14.605Z,96996.73
2018-03-29T15:03:42.869Z,96993.08
2018-03-29T15:06:11.128Z,96996.38
2018-03-29T15:08:39.416Z,96995.76
2018-03-29T15:11:07.688Z,96997.00
2018-03-29T15:13:35.974Z,97016.05
2018-03-29T15:16:04.236Z,97023.56
2018-03-29T15:18:32.492Z,97022.58
2018-03-29T15:21:00.830Z,97024.10
2018-03-29T15:23:29.869Z,97017.40
2018-03-29T15:25:58.121Z,97023.52
2018-03-29T15:28:26.375Z,97023.87
2018-03-29T15:30:55.421Z,97020.13
2018-03-29T15:33:23.684Z,97012.60
2018-03-29T15:35:52.123Z,97011.14
2018-03-29T15:38:21.160Z,97002.27
2018-03-29T15:40:49.424Z,96999.95
2018-03-29T15:43:17.693Z,97009.02
2018-03-29T15:45:45.969Z,97011.59
2018-03-29T15:48:14.228Z,97011.45
2018-03-29T15:50:43.258Z,97012.53
2018-03-29T15:53:11.537Z,97008.19
2018-03-29T15:55:39.792Z,97005.72
2018-03-29T15:58:08.053Z,97012.99
2018-03-29T16:00:36.325Z,96999.74
2018-03-29T16:03:05.352Z,97001.59
2018-03-29T16:05:33.666Z,96997.80
2018-03-29T16:08:01.989Z,97002.91
2018-03-29T16:10:31.004Z,96997.54
2018-03-29T16:12:59.264Z,97007.28
2018-03-29T16:15:27.549Z,97012.02
2018-03-29T16:17:55.816Z,97017.33
2018-03-29T16:20:24.117Z,97020.83
2018-03-29T16:22:52.382Z,97026.20
2018-03-29T16:25:20.634Z,97031.05
2018-03-29T16:27:48.909Z,97028.83
2018-03-29T16:30:17.195Z,97022.25
2018-03-29T16:32:45.465Z,97028.51
2018-03-29T16:35:13.757Z,97023.61
2018-03-29T16:37:42.024Z,97024.68
2018-03-29T16:40:10.285Z,97028.00
2018-03-29T16:42:38.563Z,97029.05
2018-03-29T16:45:06.834Z,97025.59
2018-03-29T16:47:35.111Z,97034.95
2018-03-29T16:50:03.377Z,97037.82
2018-03-29T16:52:32.406Z,97039.30
2018-03-29T16:55:00.693Z,97042.54
2018-03-29T16:57:28.958Z,97040.09
2018-03-29T16:59:57.218Z,97042.17
2018-03-29T17:02:25.538Z,97044.11
2018-03-29T17:04:53.805Z,97040.86
2018-03-29T17:07:22.068Z,97044.34
2018-03-29T17:09:50.353Z,97043.02
2018-03-29T17:12:18.623Z,97047.11
2018-03-29T17:14:46.910Z,97037.85
2018-03-29T17:17:15.164Z,97037.70
2018-03-29T17:19:43.423Z,97042.86
2018-03-29T17:22:11.708Z,97048.49
2018-03-29T17:24:40.029Z,97053.23
2018-03-29T17:27:08.301Z,97053.22
2018-03-29T17:29:36.560Z,97053.23
2018-03-29T17:32:04.848Z,97057.27
2018-03-29T17:34:33.120Z,97057.04
2018-03-29T17:37:01.396Z,97068.33
2018-03-29T17:39:29.648Z,97067.84
2018-03-29T17:41:57.956Z,97072.16
2018-03-29T17:44:26.232Z,97071.16
2018-03-29T17:46:54.513Z,97086.09
2018-03-29T17:49:22.772Z,97088.91
2018-03-29T17:51:51.043Z,97081.71
2018-03-29T17:54:19.298Z,97081.60
2018-03-29T17:56:47.577Z,97083.22
2018-03-29T17:59:15.850Z,97080.25
2018-03-29T18:01:44.158Z,97085.78
2018-03-29T18:04:12.474Z,97090.07
2018-03-29T18:06:41.532Z,97089.72
2018-03-29T18:09:09.810Z,97099.13
2018-03-29T18:11:38.069Z,97105.97
2018-03-29T18:14:06.345Z,97111.25
2018-03-29T18:16:34.637Z,97111.70
2018-03-29T18:19:03.086Z,97107.90
2018-03-29T18:21:31.412Z,97106.67
2018-03-29T18:23:59.800Z,97103.28
2018-03-29T18:26:29.451Z,97105.89
2018-03-29T18:28:58.926Z,97112.56
2018-03-29T18:31:28.273Z,97118.88
2018-03-29T18:33:59.044Z,97124.12
2018-03-29T18:36:28.920Z,97130.22
2018-03-29T18:38:58.655Z,97122.27
2018-03-29T18:41:28.674Z,97134.10
2018-03-29T18:43:58.692Z,97136.26
2018-03-29T18:46:28.485Z,97146.00
2018-03-29T18:48:58.508Z,97145.14
2018-03-29T18:51:28.672Z,97151.50
2018-03-29T18:53:58.578Z,97143.44
2018-03-29T18:56:28.410Z,97147.56
2018-03-29T18:58:58.370Z,97156.36
2018-03-29T19:01:28.292Z,97151.67
2018-03-29T19:03:58.361Z,97156.37
2018-03-29T19:06:29.608Z,97163.20
2018-03-29T19:09:00.871Z,97169.11
2018-03-29T19:11:31.490Z,97170.83
2018-03-29T19:14:02.452Z,97163.23
2018-03-29T19:16:32.093Z,97169.20
2018-03-29T19:19:02.061Z,97172.14
2018-03-29T19:21:31.850Z,97171.33
2018-03-29T19:24:01.838Z,97171.36
2018-03-29T19:26:31.598Z,97176.00
2018-03-29T19:29:01.683Z,97181.46
2018-03-29T19:31:31.554Z,97186.59
2018-03-29T19:34:01.619Z,97186.99
2018-03-29T19:36:31.562Z,97183.02
2018-03-29T19:39:02.339Z,97187.30
2018-03-29T19:41:32.083Z,97184.78
2018-03-29T19:44:02.064Z,97191.16
2018-03-29T19:46:31.899Z,97187.80
2018-03-29T19:49:02.044Z,97188.63
2018-03-29T19:51:32.714Z,97189.81
2018-03-29T19:54:02.861Z,97192.30
2018-03-29T19:56:32.753Z,97193.28
2018-03-29T19:59:02.812Z,97192.56
2018-03-29T20:01:32.627Z,97195.70
2018-03-29T20:04:02.613Z,97186.52
2018-03-29T20:06:32.700Z,97188.28
2018-03-29T20:09:02.919Z,97199.80
2018-03-29T20:11:32.954Z,97190.91
2018-03-29T20:14:03.616Z,97193.38
2018-03-29T20:16:33.695Z,97195.86
2018-03-29T20:19:03.981Z,97196.34
2018-03-29T20:21:34.791Z,97192.32
2018-03-29T20:24:05.018Z,97197.63
2018-03-29T20:26:35.115Z,97198.13
2018-03-29T20:29:05.288Z,97192.78
2018-03-29T20:31:36.193Z,97183.08
2018-03-29T20:34:06.533Z,97178.47
2018-03-29T20:36:36.288Z,97181.29
2018-03-29T20:39:06.703Z,97175.42
2018-03-29T20:41:36.516Z,97174.78
2018-03-29T20:44:06.958Z,97168.93
2018-03-29T20:46:36.830Z,97181.95
2018-03-29T20:49:07.611Z,97173.99
2018-03-29T20:51:37.694Z,97177.38
2018-03-29T20:54:08.253Z,97181.59
2018-03-29T20:56:38.038Z,97172.73
2018-03-29T20:59:09.009Z,97177.69
2018-03-29T21:01:39.086Z,97173.20
2018-03-29T21:04:09.869Z,97179.80
2018-03-29T21:06:39.853Z,97182.02
2018-03-29T21:09:10.509Z,97184.23
2018-03-29T21:11:40.596Z,97179.84
2018-03-29T21:14:11.236Z,97179.84
2018-03-29T21:16:41.958Z,97179.98
2018-03-29T21:19:12.685Z,97184.62
2018-03-29T21:21:42.601Z,97191.68
2018-03-29T21:24:13.293Z,97198.02
2018-03-29T21:26:43.065Z,97195.09
2018-03-29T21:29:13.842Z,97196.28
2018-03-29T21:31:43.733Z,97195.95
2018-03-29T21:34:13.709Z,97194.31
2018-03-29T21:36:43.595Z,97196.99
2018-03-29T21:39:13.600Z,97204.65
2018-03-29T21:41:43.625Z,97199.75
2018-03-29T21:44:13.557Z,97214.40
2018-03-29T21:46:44.222Z,97209.34
2018-03-29T21:49:14.917Z,97202.45
2018-03-29T21:51:44.885Z,97201.61
2018-03-29T21:54:14.871Z,97200.44
2018-03-29T21:56:44.633Z,97200.91
2018-03-29T21:59:14.549Z,97205.50
2018-03-29T22:01:44.263Z,97211.23
2018-03-29T22:04:14.023Z,97209.03
2018-03-29T22:06:42.951Z,97207.67
2018-03-29T22:09:11.662Z,97209.03
2018-03-29T22:11:40.131Z,97206.61
2018-03-29T22:14:08.494Z,97212.94
2018-03-29T22:16:36.947Z,97204.41
2018-03-29T22:19:05.899Z,97191.29
2018-03-29T22:21:34.244Z,97188.44
2018-03-29T22:24:02.541Z,97188.45
2018-03-29T22:26:30.793Z,97188.30
2018-03-29T22:28:59.080Z,97192.91
2018-03-29T22:31:27.344Z,97199.25
2018-03-29T22:33:55.602Z,97201.72
2018-03-29T22:36:23.869Z,97210.24
2018-03-29T22:38:52.128Z,97205.64
2018-03-29T22:41:21.156Z,97203.81
2018-03-29T22:43:49.438Z,97203.02
2018-03-29T22:46:17.690Z,97210.72
2018-03-29T22:48:45.954Z,97209.19
2018-03-29T22:51:14.987Z,97209.77
2018-03-29T22:53:43.241Z,97200.48
2018-03-29T22:56:11.488Z,97199.13
2018-03-29T22:58:40.532Z,97207.08
2018-03-29T23:01:08.800Z,97214.30
2018-03-29T23:03:37.072Z,97212.20
2018-03-29T23:06:05.331Z,97209.06
2018-03-29T23:08:33.584Z,97210.99
2018-03-29T23:11:02.641Z,97210.16
2018-03-29T23:13:30.906Z,97208.84
2018-03-29T23:15:59.148Z,97212.80
2018-03-29T23:18:27.425Z,97210.70
2018-03-29T23:20:55.677Z,97211.72
2018-03-29T23:23:23.944Z,97211.30
2018-03-29T23:25:52.201Z,97206.30
2018-03-29T23:28:20.478Z,97206.67
2018-03-29T23:30:48.733Z,97210.46
2018-03-29T23:33:17.008Z,97209.84
2018-03-29T23:35:45.288Z,97212.80
2018-03-29T23:38:13.553Z,97207.20
2018-03-29T23:40:41.808Z,97210.27
2018-03-29T23:43:10.125Z,97210.31
2018-03-29T23:45:38.393Z,97205.52
2018-03-29T23:48:06.668Z,97199.73
2018-03-29T23:50:34.926Z,97194.48
2018-03-29T23:53:03.197Z,97198.38
2018-03-29T23:55:31.501Z,97206.67
2018-03-29T23:58:17.515Z,97211.31
